createdAt,value
2022-11-19T00:00:43.176Z,3.72
2022-11-19T00:05:47.176Z,3.60
2022-11-19T00:10:48.789Z,3.83
2022-11-19T00:15:50.345Z,3.90
2022-11-19T00:20:51.888Z,4.43
2022-11-19T00:25:53.435Z,4.38
2022-11-19T00:30:54.976Z,3.70
2022-11-19T00:35:58.378Z,4.25
2022-11-19T00:41:00.130Z,3.80
2022-11-19T00:46:01.725Z,4.30
2022-11-19T00:51:03.507Z,4.70
2022-11-19T00:56:11.239Z,4.90
2022-11-19T01:01:14.576Z,4.85
2022-11-19T01:06:19.598Z,4.45
2022-11-19T01:11:30.079Z,4.50
2022-11-19T01:16:34.994Z,4.13
2022-11-19T01:21:37.143Z,3.53
2022-11-19T01:26:42.878Z,4.35
2022-11-19T01:31:46.984Z,3.95
2022-11-19T01:36:48.524Z,3.78
2022-11-19T01:41:50.122Z,4.45
2022-11-19T01:46:51.668Z,4.47
2022-11-19T01:52:00.683Z,4.40
2022-11-19T01:57:09.479Z,3.57
2022-11-19T02:02:11.186Z,3.35
2022-11-19T02:07:13.992Z,4.22
2022-11-19T02:12:40.152Z,3.10
2022-11-19T02:18:18.303Z,3.03
2022-11-19T02:23:22.742Z,2.60
2022-11-19T02:28:48.227Z,3.03
2022-11-19T02:33:55.835Z,2.80
2022-11-19T02:39:25.045Z,3.20
2022-11-19T02:44:54.536Z,2.93
2022-11-19T02:50:03.140Z,2.90
2022-11-19T02:55:05.552Z,2.72
2022-11-19T03:00:26.901Z,3.45
2022-11-19T03:05:33.553Z,3.55
2022-11-19T03:11:10.285Z,3.50
2022-11-19T03:16:41.951Z,3.55
2022-11-19T03:22:08.108Z,4.70
2022-11-19T03:27:12.327Z,4.50
2022-11-19T03:32:19.517Z,4.13
2022-11-19T03:37:24.271Z,5.00
2022-11-19T03:42:27.478Z,5.53
2022-11-19T03:47:36.876Z,4.72
2022-11-19T03:52:38.924Z,5.32
2022-11-19T03:57:40.689Z,6.22
2022-11-19T04:02:42.380Z,6.88
2022-11-19T04:07:44.908Z,7.70
2022-11-19T04:12:52.943Z,6.78
2022-11-19T04:17:54.655Z,7.55
2022-11-19T04:22:56.193Z,9.38
2022-11-19T04:27:57.789Z,7.97
2022-11-19T04:32:59.351Z,8.65
2022-11-19T04:38:00.918Z,10.18
2022-11-19T04:43:02.460Z,9.40
2022-11-19T04:48:04.280Z,9.88
2022-11-19T04:53:05.818Z,11.32
2022-11-19T04:58:07.491Z,8.57
2022-11-19T05:03:09.042Z,8.57
2022-11-19T05:08:10.591Z,9.43
2022-11-19T05:13:17.423Z,9.63
2022-11-19T05:18:18.972Z,10.90
2022-11-19T05:23:21.120Z,11.55
2022-11-19T05:28:37.635Z,9.15
2022-11-19T05:33:40.302Z,13.43
2022-11-19T05:38:41.878Z,8.90
2022-11-19T05:43:43.414Z,8.85
2022-11-19T05:48:44.959Z,8.40
2022-11-19T05:53:46.537Z,8.70
2022-11-19T05:58:48.091Z,9.35
2022-11-19T06:03:49.631Z,9.90
2022-11-19T06:08:51.608Z,10.00
2022-11-19T06:13:56.952Z,9.82
2022-11-19T06:18:58.508Z,11.75
2022-11-19T06:24:03.031Z,13.45
2022-11-19T06:29:04.612Z,15.10
2022-11-19T06:34:06.326Z,12.95
2022-11-19T06:39:07.987Z,9.60
2022-11-19T06:44:09.536Z,10.68
2022-11-19T06:49:19.579Z,12.07
2022-11-19T06:54:21.785Z,9.88
2022-11-19T06:59:23.365Z,10.32
2022-11-19T07:04:24.908Z,9.05
2022-11-19T07:09:26.453Z,9.02
2022-11-19T07:14:28.005Z,8.93
2022-11-19T07:19:29.632Z,9.88
2022-11-19T07:24:31.216Z,11.07
2022-11-19T07:29:32.754Z,11.55
2022-11-19T07:34:34.428Z,10.70
2022-11-19T07:39:36.012Z,9.73
2022-11-19T07:44:37.570Z,9.27
2022-11-19T07:49:39.183Z,9.45
2022-11-19T07:54:40.761Z,10.77
2022-11-19T07:59:42.391Z,8.68
2022-11-19T08:04:44.000Z,9.88
2022-11-19T08:09:45.568Z,13.43
2022-11-19T08:14:47.123Z,8.32
2022-11-19T08:19:48.663Z,9.35
2022-11-19T08:24:50.272Z,8.18
2022-11-19T08:29:51.906Z,6.93
2022-11-19T08:34:53.500Z,7.15
2022-11-19T08:39:55.071Z,7.70
2022-11-19T08:44:56.629Z,5.72
2022-11-19T08:49:58.230Z,9.13
2022-11-19T08:55:02.173Z,6.90
2022-11-19T09:00:06.391Z,6.60
2022-11-19T09:05:13.280Z,6.65
2022-11-19T09:10:17.842Z,7.72
2022-11-19T09:15:21.076Z,6.88
2022-11-19T09:20:22.667Z,9.88
2022-11-19T09:25:24.315Z,9.10
2022-11-19T09:30:26.224Z,12.95
2022-11-19T09:35:39.440Z,6.90
2022-11-19T09:40:45.791Z,5.70
2022-11-19T09:45:53.327Z,5.15
2022-11-19T09:51:07.116Z,5.43
2022-11-19T09:56:13.107Z,4.25
2022-11-19T10:01:17.380Z,4.18
2022-11-19T10:06:25.661Z,4.45
2022-11-19T10:11:53.016Z,4.63
2022-11-19T10:17:13.499Z,4.20
2022-11-19T10:22:24.284Z,4.63
2022-11-19T10:27:35.458Z,4.55
2022-11-19T10:32:42.860Z,4.50
2022-11-19T10:38:05.328Z,4.20
2022-11-19T10:43:31.498Z,4.78
2022-11-19T10:48:37.821Z,5.38
2022-11-19T10:53:41.065Z,5.97
2022-11-19T10:58:56.604Z,5.80
2022-11-19T11:04:25.219Z,5.90
2022-11-19T11:09:40.030Z,5.82
2022-11-19T11:14:52.702Z,5.65
2022-11-19T11:20:04.928Z,4.95
2022-11-19T11:25:25.316Z,5.70
2022-11-19T11:30:27.136Z,5.65
2022-11-19T11:35:34.763Z,4.70
2022-11-19T11:40:36.991Z,5.07
2022-11-19T11:45:38.659Z,4.38
2022-11-19T11:50:45.626Z,4.75
2022-11-19T11:55:57.561Z,5.10
2022-11-19T12:01:15.899Z,5.07
2022-11-19T12:06:20.127Z,5.43
2022-11-19T12:11:54.506Z,5.03
2022-11-19T12:17:23.759Z,8.15
2022-11-19T12:22:33.070Z,8.00
2022-11-19T12:28:09.877Z,6.80
2022-11-19T12:33:20.268Z,5.47
2022-11-19T12:38:40.068Z,4.65
2022-11-19T12:44:01.703Z,5.25
2022-11-19T12:49:27.806Z,6.00
2022-11-19T12:54:47.698Z,5.20
2022-11-19T13:05:17.296Z,4.78
2022-11-19T13:10:28.888Z,4.50
2022-11-19T13:15:36.756Z,5.20
2022-11-19T13:20:46.103Z,6.93
2022-11-19T13:26:20.030Z,7.63
2022-11-19T13:31:41.256Z,5.80
2022-11-19T13:37:07.898Z,7.88
2022-11-19T13:42:29.173Z,7.93
2022-11-19T13:47:57.928Z,5.53
2022-11-19T13:53:34.956Z,4.77
2022-11-19T13:58:47.138Z,5.22
2022-11-19T14:03:57.811Z,4.95
2022-11-19T14:09:08.679Z,5.45
2022-11-19T14:14:38.079Z,5.28
2022-11-19T14:20:12.423Z,5.65
2022-11-19T14:26:00.127Z,5.05
2022-11-19T14:31:05.052Z,5.15
2022-11-19T14:36:13.229Z,10.38
2022-11-19T14:41:20.995Z,10.23
2022-11-19T14:46:27.742Z,10.95
2022-11-19T14:51:40.459Z,11.52
2022-11-19T14:56:48.535Z,10.07
2022-11-19T15:01:57.394Z,11.52
2022-11-19T15:07:00.307Z,10.93
2022-11-19T15:12:01.971Z,11.07
2022-11-19T15:17:04.952Z,11.25
2022-11-19T15:22:20.802Z,10.70
2022-11-19T15:27:53.622Z,11.00
2022-11-19T15:33:32.869Z,10.38
2022-11-19T15:38:42.560Z,10.88
2022-11-19T15:43:51.860Z,11.05
2022-11-19T15:49:23.418Z,12.07
2022-11-19T15:54:30.015Z,11.00
2022-11-19T15:59:36.298Z,12.55
2022-11-19T16:04:39.031Z,11.40
2022-11-19T16:09:40.776Z,10.95
2022-11-19T16:15:12.265Z,10.30
2022-11-19T16:20:20.379Z,11.23
2022-11-19T16:25:31.736Z,13.50
2022-11-19T16:30:43.612Z,15.43
2022-11-19T16:35:51.225Z,15.10
2022-11-19T16:41:16.364Z,14.83
2022-11-19T16:46:39.376Z,14.23
2022-11-19T16:52:03.019Z,15.82
2022-11-19T16:57:19.462Z,14.25
2022-11-19T17:02:25.255Z,13.57
2022-11-19T17:07:27.983Z,13.68
2022-11-19T17:12:34.550Z,13.60
2022-11-19T17:17:45.803Z,15.32
2022-11-19T17:22:51.461Z,16.10
2022-11-19T17:27:55.889Z,15.32
2022-11-19T17:33:04.471Z,15.45
2022-11-19T17:38:27.636Z,14.18
2022-11-19T17:43:51.045Z,13.43
2022-11-19T17:48:57.383Z,12.88
2022-11-19T17:53:58.947Z,12.05
2022-11-19T17:59:15.372Z,11.57
2022-11-19T18:04:17.014Z,11.95
2022-11-19T18:09:21.629Z,12.35
2022-11-19T18:14:23.336Z,12.40
2022-11-19T18:19:27.153Z,15.57
2022-11-19T18:24:28.783Z,15.95
2022-11-19T18:29:31.970Z,16.45
2022-11-19T18:34:33.607Z,15.88
2022-11-19T18:39:35.143Z,15.25
2022-11-19T18:44:38.401Z,18.15
2022-11-19T18:49:40.490Z,18.35
2022-11-19T18:54:42.156Z,16.70
2022-11-19T18:59:43.714Z,15.73
2022-11-19T19:04:50.689Z,15.73
2022-11-19T19:09:52.692Z,15.48
2022-11-19T19:14:57.306Z,15.40
2022-11-19T19:19:58.827Z,16.02
2022-11-19T19:25:05.169Z,15.52
2022-11-19T19:30:09.822Z,15.23
2022-11-19T19:35:11.367Z,16.40
2022-11-19T19:40:13.469Z,15.30
2022-11-19T19:45:15.104Z,15.95
2022-11-19T19:50:16.703Z,16.80
2022-11-19T19:55:27.374Z,18.33
2022-11-19T20:00:28.963Z,17.75
2022-11-19T20:05:30.575Z,20.00
2022-11-19T20:10:33.528Z,19.40
2022-11-19T20:15:35.170Z,19.88
2022-11-19T20:20:36.718Z,21.73
2022-11-19T20:25:38.654Z,22.67
2022-11-19T20:30:45.527Z,20.05
2022-11-19T20:35:51.822Z,20.80
2022-11-19T20:41:01.602Z,19.67
2022-11-19T20:51:08.979Z,19.63
2022-11-19T20:56:13.092Z,20.75
2022-11-19T21:01:14.703Z,21.13
2022-11-19T21:06:33.505Z,20.98
2022-11-19T21:11:35.114Z,22.02
2022-11-19T21:16:45.610Z,21.33
2022-11-19T21:21:47.214Z,21.70
2022-11-19T21:26:52.043Z,22.77
2022-11-19T21:31:53.663Z,22.25
2022-11-19T21:36:57.934Z,19.00
2022-11-19T21:42:03.763Z,22.75
2022-11-19T21:47:05.307Z,22.90
2022-11-19T21:52:07.211Z,22.50
2022-11-19T21:57:08.776Z,22.17
2022-11-19T22:02:13.760Z,22.38
2022-11-19T22:07:15.338Z,22.33
2022-11-19T22:12:16.943Z,22.30
2022-11-19T22:17:18.544Z,21.83
2022-11-19T22:22:20.070Z,24.90
2022-11-19T22:27:21.659Z,21.83
2022-11-19T22:32:23.205Z,22.48
2022-11-19T22:37:24.743Z,22.95
2022-11-19T22:42:39.576Z,20.95
2022-11-19T22:47:41.121Z,21.20
2022-11-19T22:52:42.653Z,18.38
2022-11-19T22:57:44.209Z,18.27
2022-11-19T23:02:45.726Z,18.77
2022-11-19T23:07:47.272Z,17.63
2022-11-19T23:13:07.392Z,17.63
2022-11-19T23:18:08.988Z,16.80
2022-11-19T23:23:10.528Z,16.90
2022-11-19T23:28:13.442Z,17.25
2022-11-19T23:33:14.988Z,16.88
2022-11-19T23:38:17.115Z,16.20
2022-11-19T23:43:18.650Z,18.95
2022-11-19T23:48:20.374Z,16.38
2022-11-19T23:53:22.192Z,18.35
2022-11-19T23:58:28.404Z,17.90
